Florida, Argentina
Current Conditions -  °F | °C
As of 5:00 PM on Friday 24 Oct 2014 (Local Time) from SABE Reporting Station
Scattered Clouds Scattered Clouds  
Wind Chill: 79°   Ceiling: Unl
Heat Index: 81°   Visibility: 6mi
Dew Point: 70°   Wind: 12mph
Humidity: 74%   Direction: 110°ESE
Pressure: 29.91"   Gusts: NA
Location:  34.52°S, 58.5°W
Report Text: SABE 242000Z 11010KT 9999 FEW030 SCT10026/21 Q1013
Loading
Personal Weather Stations






























Interactive Weather Map
Tropical Storm Tracking
New forecast layout! Learn more

10-Day Weather Forecast

Advertisements
Track Severe Weather on mobile